Time;durP1;ratioP1;P1;durP2;ratioP2;P2;SDS_P1;SDS_P2;PMS_P1;PMS_P2;Temp;Humidity;BMP_temperature;BMP_pressure;BME280_temperature;BME280_humidity;BME280_pressure;Samples;Min_cycle;Max_cycle;Signal;HPM_P1;HPM_P2
2022/11/24 00:02:19;;;;;;;10.30;8.10;;;;;;;;;;108615;1264;22542;-30
2022/11/24 00:04:54;;;;;;;9.90;8.00;;;;;;;;;;108638;1264;22553;-30
2022/11/24 00:07:27;;;;;;;10.40;8.20;;;;;;;;;;108615;1264;22598;-30
2022/11/24 00:09:59;;;;;;;10.30;8.50;;;;;;;;;;108678;1265;22496;-29
2022/11/24 00:12:32;;;;;;;9.60;8.20;;;;;;;;;;108735;1263;25597;-29
2022/11/24 00:15:06;;;;;;;9.50;7.90;;;;;;;;;;108704;1263;22548;-29
2022/11/24 00:17:41;;;;;;;10.00;8.40;;;;;;;;;;108686;1259;22587;-30
2022/11/24 00:20:15;;;;;;;10.80;8.30;;;;;;;;;;108633;1264;22487;-29
2022/11/24 00:22:47;;;;;;;10.40;8.30;;;;;;;;;;108650;1264;25410;-29
2022/11/24 00:25:20;;;;;;;10.40;8.70;;;;;;;;;;108638;1256;25235;-29
2022/11/24 00:27:53;;;;;;;9.90;8.30;;;;;;;;;;108644;1264;22726;-29
2022/11/24 00:30:26;;;;;;;10.50;8.30;;;;;;;;;;108588;1264;22734;-29
2022/11/24 00:32:59;;;;;;;10.50;7.80;;;;;;;;;;108637;1264;22510;-29
2022/11/24 00:35:31;;;;;;;10.50;8.50;;;;;;;;;;108622;1259;22548;-29
2022/11/24 00:38:04;;;;;;;10.40;8.40;;;;;;;;;;108592;1264;22614;-30
2022/11/24 00:40:40;;;;;;;9.20;7.90;;;;;;;;;;108679;1263;22543;-29
2022/11/24 00:43:12;;;;;;;10.30;8.50;;;;;;;;;;108709;1263;22531;-29
2022/11/24 00:45:48;;;;;;;10.00;8.40;;;;;;;;;;108743;1263;22586;-29
2022/11/24 00:48:22;;;;;;;11.40;8.50;;;;;;;;;;108730;1263;22583;-29
2022/11/24 00:50:59;;;;;;;;;;;;;;;;;;108761;1263;24150;-29
2022/11/24 00:53:32;;;;;;;10.00;8.00;;;;;;;;;;108654;1265;22543;-29
2022/11/24 00:56:07;;;;;;;10.00;7.90;;;;;;;;;;108617;1264;22550;-29
2022/11/24 00:58:40;;;;;;;10.00;8.40;;;;;;;;;;108631;1260;22564;-29
2022/11/24 01:01:15;;;;;;;9.40;7.80;;;;;;;;;;108705;1263;22541;-29
2022/11/24 01:03:48;;;;;;;9.60;7.70;;;;;;;;;;108721;1265;22598;-29
2022/11/24 01:06:26;;;;;;;9.60;7.70;;;;;;;;;;108706;1264;23449;-29
2022/11/24 01:08:59;;;;;;;10.40;8.50;;;;;;;;;;108703;1265;22506;-29
2022/11/24 01:14:24;;;;;;;9.50;7.30;;;;;;;;;;108625;1264;22527;-32
2022/11/24 01:17:02;;;;;;;10.00;8.10;;;;;;;;;;108649;1263;22564;-32
2022/11/24 01:19:34;;;;;;;9.60;7.70;;;;;;;;;;108613;1257;22529;-32
2022/11/24 01:22:07;;;;;;;9.80;7.80;;;;;;;;;;108762;1263;22629;-31
2022/11/24 01:24:42;;;;;;;9.40;7.60;;;;;;;;;;108761;1263;25254;-32
2022/11/24 01:27:15;;;;;;;9.40;7.70;;;;;;;;;;108750;1256;22544;-32
2022/11/24 01:29:48;;;;;;;9.00;7.70;;;;;;;;;;108707;1264;22684;-32
2022/11/24 01:32:24;;;;;;;9.00;7.30;;;;;;;;;;108638;1264;25285;-32
2022/11/24 01:34:56;;;;;;;8.90;7.20;;;;;;;;;;108679;1262;22674;-32
2022/11/24 01:37:29;;;;;;;9.20;7.20;;;;;;;;;;108612;1264;22580;-32
2022/11/24 01:40:01;;;;;;;8.70;6.90;;;;;;;;;;108655;1264;22526;-32
2022/11/24 01:42:50;;;;;;;8.70;7.10;;;;;;;;;;108727;1263;22537;-32
2022/11/24 01:45:40;;;;;;;9.40;7.50;;;;;;;;;;108726;1263;22530;-32
2022/11/24 01:48:22;;;;;;;8.80;7.00;;;;;;;;;;108699;1265;22714;-32
2022/11/24 01:51:07;;;;;;;9.60;7.40;;;;;;;;;;108685;1264;22605;-32
2022/11/24 01:53:42;;;;;;;9.90;7.30;;;;;;;;;;108623;1262;22559;-32
2022/11/24 01:56:16;;;;;;;8.70;6.80;;;;;;;;;;108636;1264;22552;-32
2022/11/24 01:58:50;;;;;;;8.50;6.80;;;;;;;;;;108572;1264;22727;-32
2022/11/24 02:01:23;;;;;;;9.60;7.00;;;;;;;;;;108644;1258;22585;-32
2022/11/24 02:03:55;;;;;;;;;;;;;;;;;;108751;1265;22600;-32
2022/11/24 02:06:33;;;;;;;8.70;6.70;;;;;;;;;;108748;1255;25265;-32
2022/11/24 02:09:13;;;;;;;8.60;6.90;;;;;;;;;;108744;1263;22567;-32
2022/11/24 02:11:47;;;;;;;8.40;6.70;;;;;;;;;;108702;1265;22572;-32
2022/11/24 02:14:22;;;;;;;9.20;6.70;;;;;;;;;;108654;1263;22569;-32
2022/11/24 02:16:56;;;;;;;7.60;6.40;;;;;;;;;;108706;1258;22572;-32
2022/11/24 02:19:43;;;;;;;8.30;6.10;;;;;;;;;;108704;1264;22556;-32
2022/11/24 02:22:28;;;;;;;8.30;6.20;;;;;;;;;;108708;1264;22615;-32
2022/11/24 02:25:07;;;;;;;8.20;6.40;;;;;;;;;;108785;1265;22538;-32
2022/11/24 02:27:39;;;;;;;8.10;6.30;;;;;;;;;;108751;1263;22535;-32
2022/11/24 02:30:23;;;;;;;8.60;6.40;;;;;;;;;;108771;1265;22487;-32
2022/11/24 02:32:58;;;;;;;;;;;;;;;;;;108686;1258;22464;-32
2022/11/24 02:35:32;;;;;;;8.70;6.10;;;;;;;;;;108672;1264;22560;-32
2022/11/24 02:38:05;;;;;;;8.20;6.30;;;;;;;;;;108679;1259;23808;-31
2022/11/24 02:40:38;;;;;;;8.00;6.40;;;;;;;;;;108684;1264;22545;-32
2022/11/24 02:43:15;;;;;;;8.00;6.20;;;;;;;;;;108761;1263;22655;-32
2022/11/24 02:45:47;;;;;;;8.40;6.70;;;;;;;;;;108780;1263;22514;-32
2022/11/24 02:48:20;;;;;;;8.80;6.30;;;;;;;;;;108778;1256;22527;-32
2022/11/24 02:50:52;;;;;;;7.90;6.10;;;;;;;;;;108812;1263;22675;-32
2022/11/24 02:53:27;;;;;;;8.10;6.20;;;;;;;;;;108653;1264;23759;-32
2022/11/24 02:56:00;;;;;;;8.80;6.40;;;;;;;;;;108695;1264;22502;-32
2022/11/24 02:58:33;;;;;;;7.60;6.20;;;;;;;;;;108664;1263;24050;-32
2022/11/24 03:01:06;;;;;;;7.50;5.60;;;;;;;;;;108710;1264;22561;-32
2022/11/24 03:03:37;;;;;;;;;;;;;;;;;;108732;1264;23878;-32
2022/11/24 03:06:10;;;;;;;8.40;6.20;;;;;;;;;;108747;1262;22631;-32
2022/11/24 03:08:45;;;;;;;7.70;5.90;;;;;;;;;;108747;1265;25283;-32
2022/11/24 03:11:17;;;;;;;7.70;5.90;;;;;;;;;;108775;1265;22633;-32
2022/11/24 03:13:50;;;;;;;7.70;5.70;;;;;;;;;;108647;1261;25210;-32
2022/11/24 03:16:23;;;;;;;7.20;5.70;;;;;;;;;;108686;1264;25403;-32
2022/11/24 03:18:56;;;;;;;7.00;5.40;;;;;;;;;;108656;1264;22865;-32
2022/11/24 03:21:29;;;;;;;7.60;6.00;;;;;;;;;;108686;1264;22579;-32
2022/11/24 03:24:00;;;;;;;;;;;;;;;;;;108673;1264;22521;-32
2022/11/24 03:26:35;;;;;;;6.80;5.20;;;;;;;;;;108676;1265;22572;-32
2022/11/24 03:29:07;;;;;;;7.30;5.40;;;;;;;;;;108675;1264;22516;-32
2022/11/24 03:31:40;;;;;;;8.10;5.60;;;;;;;;;;108673;1264;22676;-32
2022/11/24 03:34:13;;;;;;;7.60;5.70;;;;;;;;;;108741;1265;22550;-32
2022/11/24 03:36:44;;;;;;;;;;;;;;;;;;108763;1264;22481;-32
2022/11/24 03:39:16;;;;;;;7.50;5.50;;;;;;;;;;108758;1265;23891;-32
2022/11/24 03:41:51;;;;;;;7.10;5.30;;;;;;;;;;108763;1265;23689;-32
2022/11/24 03:44:26;;;;;;;7.00;5.20;;;;;;;;;;108691;1264;22544;-32
2022/11/24 03:46:59;;;;;;;7.30;5.20;;;;;;;;;;108709;1261;22492;-31
2022/11/24 03:49:31;;;;;;;6.80;5.20;;;;;;;;;;108697;1264;23850;-32
2022/11/24 03:52:05;;;;;;;6.70;5.00;;;;;;;;;;108669;1264;22538;-32
2022/11/24 03:54:38;;;;;;;6.40;4.80;;;;;;;;;;108747;1264;22525;-32
2022/11/24 03:57:10;;;;;;;6.90;5.20;;;;;;;;;;108785;1263;25402;-32
2022/11/24 03:59:46;;;;;;;6.50;4.90;;;;;;;;;;108736;1264;22527;-32
2022/11/24 04:02:19;;;;;;;6.60;4.70;;;;;;;;;;108746;1265;22671;-32
2022/11/24 04:04:51;;;;;;;6.70;4.90;;;;;;;;;;108661;1263;22671;-32
2022/11/24 04:07:24;;;;;;;6.90;4.80;;;;;;;;;;108697;1264;22686;-32
2022/11/24 04:09:59;;;;;;;6.50;4.80;;;;;;;;;;108633;1258;22550;-32
2022/11/24 04:12:44;;;;;;;6.50;4.60;;;;;;;;;;108723;1264;22579;-32
2022/11/24 04:15:19;;;;;;;7.10;4.90;;;;;;;;;;108726;1263;25399;-32
2022/11/24 04:17:54;;;;;;;6.80;4.70;;;;;;;;;;108736;1264;24226;-32
2022/11/24 04:20:26;;;;;;;6.30;4.70;;;;;;;;;;108764;1265;22521;-32
2022/11/24 04:22:59;;;;;;;6.80;4.90;;;;;;;;;;108792;1262;22560;-32
2022/11/24 04:25:32;;;;;;;6.20;4.50;;;;;;;;;;108649;1264;22551;-32
2022/11/24 04:28:03;;;;;;;;;;;;;;;;;;108687;1261;24184;-32
2022/11/24 04:30:37;;;;;;;6.10;4.50;;;;;;;;;;108680;1264;22576;-32
2022/11/24 04:33:12;;;;;;;6.60;4.50;;;;;;;;;;108713;1264;22510;-32
2022/11/24 04:35:45;;;;;;;5.80;4.10;;;;;;;;;;108771;1264;22543;-32
2022/11/24 04:38:17;;;;;;;6.20;4.60;;;;;;;;;;108759;1264;22532;-32
2022/11/24 04:40:50;;;;;;;6.20;4.40;;;;;;;;;;108809;1265;22619;-32
2022/11/24 04:43:23;;;;;;;6.40;4.40;;;;;;;;;;108780;1263;22549;-32
2022/11/24 04:45:55;;;;;;;6.40;4.30;;;;;;;;;;108677;1264;22557;-32
2022/11/24 04:48:28;;;;;;;6.40;4.30;;;;;;;;;;108735;1264;22529;-32
2022/11/24 04:51:06;;;;;;;6.10;4.30;;;;;;;;;;108717;1264;22499;-32
2022/11/24 04:53:39;;;;;;;6.70;4.50;;;;;;;;;;108709;1265;22679;-32
2022/11/24 04:56:13;;;;;;;6.20;4.00;;;;;;;;;;108715;1262;25871;-32
2022/11/24 04:58:47;;;;;;;6.60;4.60;;;;;;;;;;108750;1265;22557;-32
2022/11/24 05:01:22;;;;;;;5.80;3.80;;;;;;;;;;108790;1264;22642;-32
2022/11/24 05:03:58;;;;;;;6.00;4.10;;;;;;;;;;108778;1264;22552;-32
2022/11/24 05:06:32;;;;;;;6.20;4.10;;;;;;;;;;108614;1264;25227;-32
2022/11/24 05:09:04;;;;;;;6.10;4.30;;;;;;;;;;108692;1264;22690;-32
2022/11/24 05:11:39;;;;;;;7.30;4.30;;;;;;;;;;108617;1264;25296;-32
2022/11/24 05:14:12;;;;;;;6.20;4.00;;;;;;;;;;108715;1264;22542;-32
2022/11/24 05:16:44;;;;;;;6.90;4.10;;;;;;;;;;108736;1259;22502;-32
2022/11/24 05:19:17;;;;;;;6.00;4.30;;;;;;;;;;108753;1264;22588;-32
2022/11/24 05:21:53;;;;;;;6.30;4.40;;;;;;;;;;108770;1265;22546;-32
2022/11/24 05:24:26;;;;;;;6.20;4.30;;;;;;;;;;108734;1262;22507;-32
2022/11/24 05:26:59;;;;;;;6.50;4.10;;;;;;;;;;108616;1266;22550;-32
2022/11/24 05:29:31;;;;;;;7.20;4.60;;;;;;;;;;108669;1261;22515;-32
2022/11/24 05:32:04;;;;;;;6.80;4.20;;;;;;;;;;108675;1268;22555;-32
2022/11/24 05:34:37;;;;;;;6.00;4.00;;;;;;;;;;108731;1264;22495;-32
2022/11/24 05:37:10;;;;;;;7.30;4.30;;;;;;;;;;108740;1264;22519;-32
2022/11/24 05:39:42;;;;;;;6.70;4.00;;;;;;;;;;108758;1260;22620;-32
2022/11/24 05:45:11;;;;;;;6.60;4.20;;;;;;;;;;108710;1265;23782;-32
2022/11/24 05:47:45;;;;;;;6.30;4.10;;;;;;;;;;108686;1268;22574;-32
2022/11/24 05:50:21;;;;;;;6.70;4.20;;;;;;;;;;108707;1264;22564;-32
2022/11/24 05:52:53;;;;;;;6.90;4.50;;;;;;;;;;108644;1269;22548;-32
2022/11/24 05:55:28;;;;;;;6.80;4.00;;;;;;;;;;108705;1265;22596;-32
2022/11/24 05:58:04;;;;;;;7.50;4.50;;;;;;;;;;108784;1264;22733;-32
2022/11/24 06:00:40;;;;;;;7.00;4.80;;;;;;;;;;108790;1263;22582;-31
2022/11/24 06:03:15;;;;;;;6.50;4.20;;;;;;;;;;108724;1264;22977;-31
2022/11/24 06:05:50;;;;;;;7.50;4.70;;;;;;;;;;108711;1256;22687;-31
2022/11/24 06:08:22;;;;;;;7.00;4.80;;;;;;;;;;108662;1264;22640;-31
2022/11/24 06:11:15;;;;;;;6.80;4.60;;;;;;;;;;108680;1264;23865;-32
2022/11/24 06:13:49;;;;;;;7.70;4.30;;;;;;;;;;108688;1264;22736;-31
2022/11/24 06:16:21;;;;;;;7.30;4.30;;;;;;;;;;108648;1265;22507;-31
2022/11/24 06:18:54;;;;;;;7.00;4.70;;;;;;;;;;108744;1266;22569;-28
2022/11/24 06:21:26;;;;;;;6.90;4.80;;;;;;;;;;108720;1267;25535;-28
2022/11/24 06:23:58;;;;;;;6.70;4.70;;;;;;;;;;108759;1262;25258;-27
2022/11/24 06:26:32;;;;;;;6.80;4.40;;;;;;;;;;108591;1268;22671;-27
2022/11/24 06:29:07;;;;;;;7.30;4.50;;;;;;;;;;108667;1265;22585;-27
2022/11/24 06:31:40;;;;;;;6.40;4.60;;;;;;;;;;108646;1265;22545;-27
2022/11/24 06:34:12;;;;;;;;;;;;;;;;;;108638;1265;22521;-32
2022/11/24 06:36:44;;;;;;;7.30;4.40;;;;;;;;;;108529;1264;23946;-28
2022/11/24 06:39:20;;;;;;;7.20;4.50;;;;;;;;;;108629;1264;23872;-28
2022/11/24 06:41:54;;;;;;;7.90;4.90;;;;;;;;;;108642;1266;22547;-29
2022/11/24 06:44:27;;;;;;;7.50;4.60;;;;;;;;;;108614;1264;22867;-29
2022/11/24 06:47:02;;;;;;;7.10;4.70;;;;;;;;;;108662;1264;22507;-29
2022/11/24 06:49:34;;;;;;;6.90;4.60;;;;;;;;;;108550;1265;421084;-29
2022/11/24 06:52:07;;;;;;;7.10;4.60;;;;;;;;;;108861;1269;23775;-29
2022/11/24 06:54:38;;;;;;;;;;;;;;;;;;108641;1270;22559;-29
2022/11/24 06:57:11;;;;;;;7.80;4.50;;;;;;;;;;108819;1266;22557;-29
2022/11/24 06:59:43;;;;;;;7.30;4.20;;;;;;;;;;108644;1264;22530;-29
2022/11/24 07:02:16;;;;;;;6.90;4.30;;;;;;;;;;108591;1264;22689;-29
2022/11/24 07:04:48;;;;;;;7.30;4.90;;;;;;;;;;108613;1269;22509;-32
2022/11/24 07:07:20;;;;;;;7.80;4.60;;;;;;;;;;108658;1264;22512;-32
2022/11/24 07:09:58;;;;;;;7.60;4.90;;;;;;;;;;108830;1264;22548;-27
2022/11/24 07:12:36;;;;;;;7.90;4.90;;;;;;;;;;108828;1266;22506;-27
2022/11/24 07:15:13;;;;;;;7.40;5.00;;;;;;;;;;108842;1269;22619;-30
2022/11/24 07:17:46;;;;;;;7.10;4.90;;;;;;;;;;108773;1263;22725;-32
2022/11/24 07:20:19;;;;;;;7.60;4.80;;;;;;;;;;108643;1271;22646;-32
2022/11/24 07:22:58;;;;;;;7.70;4.90;;;;;;;;;;108656;1264;22683;-32
2022/11/24 07:25:31;;;;;;;7.30;5.00;;;;;;;;;;108687;1264;22548;-32
2022/11/24 07:28:04;;;;;;;7.10;4.80;;;;;;;;;;108688;1265;23840;-31
2022/11/24 07:30:36;;;;;;;7.90;5.10;;;;;;;;;;108917;1268;24016;-31
2022/11/24 07:33:09;;;;;;;9.90;5.10;;;;;;;;;;108917;1263;22548;-32
2022/11/24 07:35:41;;;;;;;9.40;5.40;;;;;;;;;;108905;1263;22512;-32
2022/11/24 07:38:13;;;;;;;7.00;4.90;;;;;;;;;;108855;1269;22548;-27
2022/11/24 07:40:48;;;;;;;7.50;4.70;;;;;;;;;;108730;1264;22590;-28
2022/11/24 07:43:20;;;;;;;7.30;4.80;;;;;;;;;;108817;1269;22562;-30
2022/11/24 07:45:55;;;;;;;6.90;5.00;;;;;;;;;;108812;1265;22600;-30
2022/11/24 07:48:28;;;;;;;8.40;4.90;;;;;;;;;;108863;1265;22557;-30
2022/11/24 07:51:05;;;;;;;6.70;4.50;;;;;;;;;;108952;1268;22561;-30
2022/11/24 07:53:37;;;;;;;6.20;4.70;;;;;;;;;;109031;1269;22891;-29
2022/11/24 07:56:12;;;;;;;6.20;4.70;;;;;;;;;;109012;1269;22567;-30
2022/11/24 07:58:47;;;;;;;7.00;4.70;;;;;;;;;;108885;1264;22494;-30
2022/11/24 08:01:21;;;;;;;6.80;4.80;;;;;;;;;;108865;1271;22498;-30
2022/11/24 08:03:53;;;;;;;6.50;4.60;;;;;;;;;;108822;1265;22624;-29
2022/11/24 08:06:27;;;;;;;7.50;4.70;;;;;;;;;;108843;1261;22598;-30
2022/11/24 08:09:01;;;;;;;6.30;4.70;;;;;;;;;;108879;1267;24261;-30
2022/11/24 08:11:35;;;;;;;6.30;4.40;;;;;;;;;;109053;1269;22723;-30
2022/11/24 08:14:13;;;;;;;6.50;4.40;;;;;;;;;;108967;1263;22575;-30
2022/11/24 08:16:45;;;;;;;6.20;4.40;;;;;;;;;;108990;1263;23259;-30
2022/11/24 08:19:18;;;;;;;6.80;4.60;;;;;;;;;;108874;1263;22559;-32
2022/11/24 08:21:50;;;;;;;6.70;4.50;;;;;;;;;;108705;1269;22560;-30
2022/11/24 08:24:22;;;;;;;6.60;4.60;;;;;;;;;;108655;1271;22556;-31
2022/11/24 08:26:57;;;;;;;6.40;4.40;;;;;;;;;;108594;1262;22601;-30
2022/11/24 08:29:35;;;;;;;8.80;4.80;;;;;;;;;;108653;1264;22678;-32
2022/11/24 08:32:09;;;;;;;7.70;4.40;;;;;;;;;;108775;1264;22524;-30
2022/11/24 08:34:43;;;;;;;7.20;4.60;;;;;;;;;;108701;1269;22546;-30
2022/11/24 08:37:16;;;;;;;6.60;4.20;;;;;;;;;;108716;1264;22595;-31
2022/11/24 08:39:50;;;;;;;6.90;4.30;;;;;;;;;;108633;1267;22572;-30
2022/11/24 08:42:22;;;;;;;8.00;4.80;;;;;;;;;;108583;1269;23903;-30
2022/11/24 08:44:57;;;;;;;6.40;4.40;;;;;;;;;;108632;1261;25383;-30
2022/11/24 08:47:32;;;;;;;6.40;4.40;;;;;;;;;;108600;1257;22617;-30
2022/11/24 08:50:10;;;;;;;6.60;4.20;;;;;;;;;;108632;1263;22691;-31
2022/11/24 08:52:42;;;;;;;6.50;4.10;;;;;;;;;;108802;1263;22602;-31
2022/11/24 08:55:20;;;;;;;6.90;4.10;;;;;;;;;;108801;1269;22505;-30
2022/11/24 08:57:55;;;;;;;6.50;4.20;;;;;;;;;;108783;1264;22542;-30
2022/11/24 09:00:44;;;;;;;6.60;4.10;;;;;;;;;;108926;1253;22435;31
2022/11/24 09:03:16;;;;;;;7.10;4.30;;;;;;;;;;108159;1264;22549;-31
2022/11/24 09:05:48;;;;;;;8.30;4.50;;;;;;;;;;108297;1262;22567;-30
2022/11/24 09:08:23;;;;;;;7.80;4.20;;;;;;;;;;108298;1268;22561;-29
2022/11/24 09:10:55;;;;;;;7.00;4.30;;;;;;;;;;108231;1263;22564;-33
2022/11/24 09:13:27;;;;;;;7.70;4.30;;;;;;;;;;108371;1268;22515;-32
2022/11/24 09:16:13;;;;;;;7.20;4.50;;;;;;;;;;108332;1268;23309;-34
2022/11/24 09:18:51;;;;;;;7.30;4.30;;;;;;;;;;108214;1263;22550;-32
2022/11/24 09:21:24;;;;;;;6.40;4.20;;;;;;;;;;108295;1262;25307;-31
2022/11/24 09:23:58;;;;;;;6.90;4.50;;;;;;;;;;108347;1270;25446;-32
2022/11/24 09:26:35;;;;;;;8.20;4.20;;;;;;;;;;108286;1266;22566;-31
2022/11/24 09:29:09;;;;;;;6.60;4.10;;;;;;;;;;108308;1272;22522;-32
2022/11/24 09:31:42;;;;;;;6.60;4.40;;;;;;;;;;108226;1268;22507;-32
2022/11/24 09:34:15;;;;;;;;;;;;;;;;;;108223;1269;22712;-32
2022/11/24 09:36:47;;;;;;;6.60;3.90;;;;;;;;;;108195;1269;22567;-32
2022/11/24 09:39:19;;;;;;;7.30;4.60;;;;;;;;;;108303;1265;24040;-32
2022/11/24 09:42:10;;;;;;;;;;;;;;;;;;108355;1269;22537;-32
2022/11/24 09:45:20;;;;;;;7.80;4.40;;;;;;;;;;108308;1269;22535;-32
2022/11/24 09:48:03;;;;;;;7.70;4.40;;;;;;;;;;108310;1269;22529;-30
2022/11/24 09:50:39;;;;;;;6.20;4.20;;;;;;;;;;108257;1268;22563;-30
2022/11/24 09:53:21;;;;;;;6.40;3.80;;;;;;;;;;108221;1269;22565;-31
2022/11/24 09:56:00;;;;;;;7.10;4.30;;;;;;;;;;108225;1269;22516;-32
2022/11/24 09:58:43;;;;;;;7.10;4.30;;;;;;;;;;108151;1267;22560;-35
2022/11/24 10:01:20;;;;;;;6.90;4.60;;;;;;;;;;108215;1269;22527;-31
2022/11/24 10:03:54;;;;;;;6.90;4.40;;;;;;;;;;108242;1265;22578;-32
2022/11/24 10:06:30;;;;;;;7.10;4.50;;;;;;;;;;108226;1269;24539;-33
2022/11/24 10:09:32;;;;;;;7.50;4.80;;;;;;;;;;108219;1269;22598;-32
2022/11/24 10:12:27;;;;;;;6.40;4.20;;;;;;;;;;108248;1270;22534;-31
2022/11/24 10:15:27;;;;;;;6.80;4.60;;;;;;;;;;108213;1270;22540;-31
2022/11/24 10:18:40;;;;;;;7.00;4.50;;;;;;;;;;108148;1269;22552;-32
2022/11/24 10:21:32;;;;;;;8.00;4.90;;;;;;;;;;108160;1270;22559;-32
2022/11/24 10:24:35;;;;;;;6.90;4.40;;;;;;;;;;108261;1261;22539;-32
2022/11/24 10:27:26;;;;;;;7.20;4.70;;;;;;;;;;108178;1264;22598;-32
2022/11/24 10:29:59;;;;;;;7.40;4.50;;;;;;;;;;108180;1271;22553;-32
2022/11/24 10:32:37;;;;;;;7.60;5.20;;;;;;;;;;108146;1270;22604;-32
2022/11/24 10:35:20;;;;;;;7.60;5.00;;;;;;;;;;108181;1266;22567;-33
2022/11/24 10:38:12;;;;;;;7.40;4.60;;;;;;;;;;108231;1267;22581;-33
2022/11/24 10:40:50;;;;;;;6.40;4.50;;;;;;;;;;108196;1269;22534;-33
2022/11/24 10:43:24;;;;;;;6.10;4.40;;;;;;;;;;108258;1271;22492;-34
2022/11/24 10:46:06;;;;;;;7.30;5.10;;;;;;;;;;108276;1265;22552;-33
2022/11/24 10:48:47;;;;;;;6.90;4.90;;;;;;;;;;108280;1261;22520;-35
2022/11/24 10:51:47;;;;;;;7.20;4.80;;;;;;;;;;108255;1269;22586;-32
2022/11/24 10:54:22;;;;;;;7.60;5.40;;;;;;;;;;108227;1269;22601;-32
2022/11/24 10:56:57;;;;;;;6.80;5.30;;;;;;;;;;108212;1270;22572;-34
2022/11/24 10:59:39;;;;;;;6.80;5.10;;;;;;;;;;108238;1263;25282;-33
2022/11/24 11:02:36;;;;;;;6.90;5.00;;;;;;;;;;108191;1270;25521;-31
2022/11/24 11:05:41;;;;;;;7.10;5.00;;;;;;;;;;108222;1270;22563;-31
2022/11/24 11:08:21;;;;;;;7.20;4.90;;;;;;;;;;108356;1268;22609;-34
2022/11/24 11:11:18;;;;;;;6.10;4.50;;;;;;;;;;108266;1269;23711;-32
2022/11/24 11:13:57;;;;;;;7.20;4.80;;;;;;;;;;108279;1270;22522;-32
2022/11/24 11:16:40;;;;;;;6.80;4.90;;;;;;;;;;108204;1269;22524;-32
2022/11/24 11:19:35;;;;;;;7.80;5.10;;;;;;;;;;108230;1270;22611;-30
2022/11/24 11:22:19;;;;;;;7.60;5.60;;;;;;;;;;108203;1269;22510;-30
2022/11/24 11:25:14;;;;;;;8.20;5.50;;;;;;;;;;108166;1263;22623;-31
2022/11/24 11:27:48;;;;;;;7.10;5.40;;;;;;;;;;108180;1264;22682;-31
2022/11/24 11:30:28;;;;;;;7.80;5.20;;;;;;;;;;108189;1270;23743;-33
2022/11/24 11:33:02;;;;;;;7.20;5.20;;;;;;;;;;108165;1268;24200;-31
2022/11/24 11:35:37;;;;;;;7.70;5.40;;;;;;;;;;108217;1267;22560;-33
2022/11/24 11:38:09;;;;;;;;;;;;;;;;;;108218;1269;22580;-31
2022/11/24 11:40:43;;;;;;;7.50;4.70;;;;;;;;;;108244;1269;22570;-33
2022/11/24 11:43:24;;;;;;;6.60;4.90;;;;;;;;;;108191;1269;22682;-33
2022/11/24 11:46:05;;;;;;;6.50;5.00;;;;;;;;;;108286;1271;22506;-33
2022/11/24 11:48:42;;;;;;;7.10;5.30;;;;;;;;;;108274;1261;22563;-33
2022/11/24 11:51:34;;;;;;;7.00;4.80;;;;;;;;;;108287;1269;24027;-34
2022/11/24 11:54:16;;;;;;;7.00;4.70;;;;;;;;;;108238;1269;23730;-34
2022/11/24 11:57:01;;;;;;;6.50;4.90;;;;;;;;;;108189;1270;25403;-31
2022/11/24 11:59:53;;;;;;;6.90;4.80;;;;;;;;;;108187;1269;22563;-32
2022/11/24 12:03:16;;;;;;;6.50;4.80;;;;;;;;;;108224;1269;22566;-33
2022/11/24 12:06:02;;;;;;;7.00;4.90;;;;;;;;;;108160;1263;22649;-31
2022/11/24 12:08:49;;;;;;;7.30;5.10;;;;;;;;;;108201;1269;22562;-31
2022/11/24 12:11:28;;;;;;;6.40;5.00;;;;;;;;;;108240;1261;22561;-31
2022/11/24 12:14:18;;;;;;;7.20;5.20;;;;;;;;;;108235;1268;22562;-31
2022/11/24 12:17:03;;;;;;;6.50;4.90;;;;;;;;;;108309;1269;22556;-31
2022/11/24 12:19:51;;;;;;;7.00;5.00;;;;;;;;;;108309;1271;22521;-31
2022/11/24 12:22:35;;;;;;;6.70;4.90;;;;;;;;;;108282;1269;22572;-30
2022/11/24 12:25:26;;;;;;;6.70;4.70;;;;;;;;;;108230;1269;24160;-31
2022/11/24 12:28:18;;;;;;;6.80;4.90;;;;;;;;;;108244;1264;22556;-28
2022/11/24 12:31:08;;;;;;;7.20;5.10;;;;;;;;;;108164;1270;22680;-29
2022/11/24 12:34:10;;;;;;;7.90;5.90;;;;;;;;;;108199;1268;24964;-29
2022/11/24 12:37:06;;;;;;;6.90;4.80;;;;;;;;;;108276;1268;22563;-29
2022/11/24 12:39:52;;;;;;;6.60;5.00;;;;;;;;;;108260;1262;22558;-28
2022/11/24 12:42:39;;;;;;;7.20;4.50;;;;;;;;;;108321;1262;23126;-29
2022/11/24 12:45:24;;;;;;;8.00;4.80;;;;;;;;;;108141;1269;22682;-29
2022/11/24 12:48:18;;;;;;;6.60;4.80;;;;;;;;;;108210;1270;22571;-31
2022/11/24 12:50:53;;;;;;;7.50;4.80;;;;;;;;;;108213;1269;23872;-30
2022/11/24 12:53:31;;;;;;;7.10;4.90;;;;;;;;;;108245;1270;25248;-30
2022/11/24 12:56:11;;;;;;;7.00;4.80;;;;;;;;;;108228;1270;22507;-30
2022/11/24 12:58:51;;;;;;;6.80;4.90;;;;;;;;;;108325;1268;23941;-29
2022/11/24 13:01:35;;;;;;;6.90;5.00;;;;;;;;;;108225;1267;25275;-29
2022/11/24 13:04:15;;;;;;;6.70;4.90;;;;;;;;;;108224;1269;22625;-30
2022/11/24 13:06:57;;;;;;;7.70;5.00;;;;;;;;;;108211;1269;22487;-30
2022/11/24 13:09:30;;;;;;;6.50;4.80;;;;;;;;;;108150;1264;22735;-30
2022/11/24 13:12:15;;;;;;;6.50;4.80;;;;;;;;;;108235;1263;22528;-30
2022/11/24 13:14:51;;;;;;;6.70;4.80;;;;;;;;;;108168;1270;22572;-32
2022/11/24 13:17:34;;;;;;;6.80;4.70;;;;;;;;;;108205;1270;22560;-31
2022/11/24 13:20:30;;;;;;;7.40;5.00;;;;;;;;;;108230;1271;22520;-29
2022/11/24 13:23:05;;;;;;;7.00;5.00;;;;;;;;;;108208;1269;22550;-29
2022/11/24 13:25:41;;;;;;;6.20;4.30;;;;;;;;;;108189;1269;22555;-30
2022/11/24 13:29:03;;;;;;;6.60;4.90;;;;;;;;;;108182;1269;22516;-29
2022/11/24 13:31:36;;;;;;;6.70;4.90;;;;;;;;;;108173;1264;22562;-29
2022/11/24 13:35:03;;;;;;;;;;;;;;;;;;108201;1268;22547;-32
2022/11/24 13:37:53;;;;;;;6.60;4.40;;;;;;;;;;108182;1271;22581;-33
2022/11/24 13:40:46;;;;;;;6.60;4.80;;;;;;;;;;108221;1261;24360;-31
2022/11/24 13:43:25;;;;;;;5.90;4.50;;;;;;;;;;108253;1269;22568;-32
2022/11/24 13:45:57;;;;;;;5.80;4.30;;;;;;;;;;108181;1270;22821;-31
2022/11/24 13:49:01;;;;;;;6.30;4.60;;;;;;;;;;108200;1267;22537;-32
2022/11/24 13:51:33;;;;;;;6.70;4.90;;;;;;;;;;108147;1270;23746;-32
2022/11/24 13:54:08;;;;;;;6.50;4.70;;;;;;;;;;108175;1269;24220;-32
2022/11/24 13:56:40;;;;;;;6.80;4.70;;;;;;;;;;108184;1269;22655;-32
2022/11/24 13:59:32;;;;;;;7.40;4.90;;;;;;;;;;108262;1268;22773;-30
2022/11/24 14:02:23;;;;;;;6.30;4.70;;;;;;;;;;108217;1269;22731;-29
2022/11/24 14:04:56;;;;;;;6.70;4.60;;;;;;;;;;108218;1265;22608;-29
2022/11/24 14:07:29;;;;;;;6.40;4.70;;;;;;;;;;108189;1266;22522;-30
2022/11/24 14:10:01;;;;;;;6.90;4.70;;;;;;;;;;108195;1270;22531;-31
2022/11/24 14:12:34;;;;;;;6.60;4.80;;;;;;;;;;108304;1268;22504;-31
2022/11/24 14:15:26;;;;;;;6.70;4.60;;;;;;;;;;108190;1263;22637;-31
2022/11/24 14:17:58;;;;;;;6.80;5.00;;;;;;;;;;108239;1262;25947;-31
2022/11/24 14:20:32;;;;;;;6.90;4.70;;;;;;;;;;108224;1261;25409;-29
2022/11/24 14:23:04;;;;;;;6.80;4.80;;;;;;;;;;108247;1271;22716;-29
2022/11/24 14:25:36;;;;;;;6.70;4.70;;;;;;;;;;108245;1268;22568;-29
2022/11/24 14:28:22;;;;;;;6.80;4.70;;;;;;;;;;108210;1269;23846;-30
2022/11/24 14:31:08;;;;;;;6.40;4.40;;;;;;;;;;108160;1270;22501;-31
2022/11/24 14:33:40;;;;;;;7.30;5.40;;;;;;;;;;108200;1270;22547;-30
2022/11/24 14:36:21;;;;;;;6.70;4.80;;;;;;;;;;108210;1270;25413;-27
2022/11/24 14:38:54;;;;;;;7.20;4.90;;;;;;;;;;108180;1264;22561;-29
2022/11/24 14:41:28;;;;;;;6.50;4.70;;;;;;;;;;108230;1271;22687;-28
2022/11/24 14:44:19;;;;;;;7.10;5.10;;;;;;;;;;108253;1271;22522;-29
2022/11/24 14:46:59;;;;;;;7.40;4.70;;;;;;;;;;108213;1261;22591;-30
2022/11/24 14:49:39;;;;;;;7.80;5.00;;;;;;;;;;108009;1269;268589;-30
2022/11/24 14:52:17;;;;;;;6.80;4.70;;;;;;;;;;108195;1270;22503;-32
2022/11/24 14:54:55;;;;;;;7.00;5.20;;;;;;;;;;108160;1269;22587;-32
2022/11/24 14:57:32;;;;;;;6.80;4.70;;;;;;;;;;108204;1269;27038;-31
2022/11/24 15:00:25;;;;;;;7.00;5.00;;;;;;;;;;108241;1268;22518;-31
2022/11/24 15:03:12;;;;;;;;;;;;;;;;;;108266;1271;22530;-30
2022/11/24 15:05:57;;;;;;;6.70;4.70;;;;;;;;;;108220;1271;22567;-30
2022/11/24 15:08:36;;;;;;;6.70;4.60;;;;;;;;;;108172;1269;22557;-31
2022/11/24 15:11:09;;;;;;;7.10;5.00;;;;;;;;;;108186;1268;22617;-31
2022/11/24 15:13:55;;;;;;;7.00;4.90;;;;;;;;;;108382;1268;23896;-30
2022/11/24 15:16:30;;;;;;;7.10;5.10;;;;;;;;;;108177;1268;24049;-32
2022/11/24 15:19:05;;;;;;;6.80;4.50;;;;;;;;;;108183;1268;23231;-31
2022/11/24 15:21:39;;;;;;;6.60;5.00;;;;;;;;;;108381;1269;22580;-31
2022/11/24 15:24:20;;;;;;;6.50;4.70;;;;;;;;;;108284;1269;22598;-31
2022/11/24 15:27:02;;;;;;;6.60;4.90;;;;;;;;;;108262;1265;22543;-31
2022/11/24 15:29:36;;;;;;;7.60;5.00;;;;;;;;;;108266;1269;22516;-31
2022/11/24 15:32:16;;;;;;;7.80;4.50;;;;;;;;;;108258;1263;22685;-28
2022/11/24 15:34:48;;;;;;;6.90;4.80;;;;;;;;;;108261;1270;22558;-28
2022/11/24 15:37:21;;;;;;;6.70;5.00;;;;;;;;;;108245;1270;22556;-30
2022/11/24 15:39:56;;;;;;;6.60;5.20;;;;;;;;;;108417;1264;22653;-31
2022/11/24 15:42:28;;;;;;;6.90;4.90;;;;;;;;;;108347;1269;22561;-31